createdAt,value
2023-02-03T00:00:20.952Z,29.10
2023-02-03T00:01:20.920Z,24.00
2023-02-03T00:02:20.999Z,25.60
2023-02-03T00:03:20.991Z,28.00
2023-02-03T00:04:20.908Z,24.20
2023-02-03T00:05:20.878Z,27.60
2023-02-03T00:06:20.880Z,28.70
2023-02-03T00:07:20.859Z,25.60
2023-02-03T00:08:20.854Z,25.90
2023-02-03T00:09:20.843Z,25.20
2023-02-03T00:10:20.857Z,25.30
2023-02-03T00:11:20.826Z,27.00
2023-02-03T00:12:20.812Z,25.20
2023-02-03T00:13:20.802Z,25.00
2023-02-03T00:14:20.779Z,24.30
2023-02-03T00:15:20.774Z,22.60
2023-02-03T00:16:20.791Z,23.40
2023-02-03T00:17:20.751Z,22.80
2023-02-03T00:18:20.744Z,24.00
2023-02-03T00:19:20.737Z,25.30
2023-02-03T00:20:20.715Z,22.80
2023-02-03T00:21:20.717Z,25.50
2023-02-03T00:22:20.701Z,23.40
2023-02-03T00:23:20.692Z,22.60
2023-02-03T00:24:20.674Z,23.40
2023-02-03T00:25:20.665Z,24.20
2023-02-03T00:26:20.669Z,23.50
2023-02-03T00:27:20.641Z,23.40
2023-02-03T00:28:20.629Z,25.20
2023-02-03T00:29:20.617Z,24.30
2023-02-03T00:30:20.605Z,25.40
2023-02-03T00:31:20.717Z,24.30
2023-02-03T00:32:20.802Z,23.50
2023-02-03T00:33:20.578Z,26.30
2023-02-03T00:34:20.573Z,21.90
2023-02-03T00:35:20.556Z,22.10
2023-02-03T00:36:20.553Z,23.70
2023-02-03T00:37:20.531Z,24.30
2023-02-03T00:38:20.520Z,25.00
2023-02-03T00:39:20.509Z,22.10
2023-02-03T00:40:20.496Z,24.70
2023-02-03T00:41:20.504Z,25.30
2023-02-03T00:42:20.476Z,28.50
2023-02-03T00:43:20.468Z,23.20
2023-02-03T00:44:20.451Z,26.80
2023-02-03T00:45:20.450Z,22.50
2023-02-03T00:46:20.493Z,23.30
2023-02-03T00:47:20.426Z,29.80
2023-02-03T00:48:20.410Z,23.40
2023-02-03T00:49:20.403Z,27.20
2023-02-03T00:50:20.385Z,24.50
2023-02-03T00:51:20.392Z,23.80
2023-02-03T00:52:20.368Z,24.70
2023-02-03T00:53:20.357Z,24.20
2023-02-03T00:54:20.350Z,25.80
2023-02-03T00:55:20.335Z,26.10
2023-02-03T00:56:20.333Z,26.80
2023-02-03T00:57:20.311Z,25.40
2023-02-03T00:58:20.299Z,25.40
2023-02-03T00:59:20.301Z,27.40
2023-02-03T01:00:20.282Z,23.50
2023-02-03T01:01:20.307Z,24.90
2023-02-03T01:02:20.280Z,27.70
2023-02-03T01:03:20.250Z,26.70
2023-02-03T01:04:20.230Z,25.80
2023-02-03T01:05:20.233Z,25.20
2023-02-03T01:06:20.238Z,24.00
2023-02-03T01:07:20.203Z,24.30
2023-02-03T01:08:20.191Z,26.80
2023-02-03T01:09:20.183Z,23.80
2023-02-03T01:10:20.166Z,22.20
2023-02-03T01:11:20.166Z,21.00
2023-02-03T01:12:20.149Z,23.40
2023-02-03T01:13:20.139Z,26.30
2023-02-03T01:14:20.132Z,22.10
2023-02-03T01:15:20.116Z,23.80
2023-02-03T01:16:20.134Z,22.60
2023-02-03T01:17:20.093Z,25.10
2023-02-03T01:18:20.080Z,23.80
2023-02-03T01:19:20.073Z,22.60
2023-02-03T01:20:20.060Z,22.10
2023-02-03T01:21:20.069Z,25.00
2023-02-03T01:22:20.040Z,21.70
2023-02-03T01:23:20.029Z,21.40
2023-02-03T01:24:20.013Z,22.50
2023-02-03T01:25:20.004Z,21.80
2023-02-03T01:26:20.012Z,22.50
2023-02-03T01:27:19.985Z,19.80
2023-02-03T01:28:19.972Z,21.20
2023-02-03T01:29:19.964Z,23.90
2023-02-03T01:30:19.949Z,22.00
2023-02-03T01:31:20.105Z,23.60
2023-02-03T01:32:19.924Z,23.00
2023-02-03T01:33:19.918Z,23.60
2023-02-03T01:34:19.904Z,21.20
2023-02-03T01:35:19.897Z,22.20
2023-02-03T01:36:19.893Z,20.60
2023-02-03T01:37:19.879Z,20.80
2023-02-03T01:38:19.867Z,21.10
2023-02-03T01:39:19.856Z,20.90
2023-02-03T01:40:19.843Z,25.70
2023-02-03T01:41:19.848Z,20.90
2023-02-03T01:42:19.819Z,22.70
2023-02-03T01:43:19.813Z,22.40
2023-02-03T01:44:19.795Z,20.90
2023-02-03T01:45:19.786Z,19.60
2023-02-03T01:46:19.834Z,22.10
2023-02-03T01:47:19.786Z,18.70
2023-02-03T01:48:19.751Z,22.90
2023-02-03T01:49:19.751Z,20.50
2023-02-03T01:50:19.735Z,19.60
2023-02-03T01:51:19.727Z,21.90
2023-02-03T01:52:19.720Z,23.70
2023-02-03T01:53:19.697Z,24.50
2023-02-03T01:54:19.683Z,19.40
2023-02-03T01:55:19.696Z,20.70
2023-02-03T01:56:19.663Z,19.60
2023-02-03T01:57:19.667Z,22.10
2023-02-03T01:58:19.645Z,20.20
2023-02-03T01:59:19.637Z,21.10
2023-02-03T02:00:19.619Z,21.70
2023-02-03T02:01:19.880Z,21.70
2023-02-03T02:02:19.661Z,20.10
2023-02-03T02:03:19.590Z,24.10
2023-02-03T02:04:19.579Z,23.70
2023-02-03T02:05:19.571Z,20.70
2023-02-03T02:06:19.566Z,22.20
2023-02-03T02:07:19.554Z,21.50
2023-02-03T02:08:19.548Z,18.90
2023-02-03T02:09:19.527Z,19.70
2023-02-03T02:10:19.514Z,22.00
2023-02-03T02:11:19.502Z,21.40
2023-02-03T02:12:19.495Z,20.50
2023-02-03T02:13:19.480Z,23.40
2023-02-03T02:14:19.480Z,19.10
2023-02-03T02:15:19.467Z,20.40
2023-02-03T02:16:19.485Z,20.40
2023-02-03T02:17:19.448Z,20.50
2023-02-03T02:18:19.447Z,21.50
2023-02-03T02:19:19.418Z,22.60
2023-02-03T02:20:20.843Z,18.10
2023-02-03T02:21:19.391Z,19.40
2023-02-03T02:22:19.424Z,18.90
2023-02-03T02:23:19.376Z,19.30
2023-02-03T02:24:19.362Z,20.40
2023-02-03T02:25:19.354Z,20.10
2023-02-03T02:26:19.353Z,18.90
2023-02-03T02:27:19.333Z,19.40
2023-02-03T02:28:19.422Z,19.50
2023-02-03T02:29:19.305Z,22.30
2023-02-03T02:30:19.303Z,18.10
2023-02-03T02:31:19.360Z,23.60
2023-02-03T02:32:19.304Z,23.10
2023-02-03T02:33:19.256Z,18.90
2023-02-03T02:34:19.255Z,18.40
2023-02-03T02:35:19.236Z,16.70
2023-02-03T02:36:19.228Z,17.40
2023-02-03T02:37:19.224Z,21.00
2023-02-03T02:38:19.207Z,20.10
2023-02-03T02:39:19.189Z,20.70
2023-02-03T02:40:19.220Z,19.20
2023-02-03T02:41:19.175Z,21.30
2023-02-03T02:42:19.177Z,18.90
2023-02-03T02:43:19.148Z,19.70
2023-02-03T02:44:19.141Z,19.20
2023-02-03T02:45:19.168Z,21.70
2023-02-03T02:46:19.188Z,14.70
2023-02-03T02:47:19.127Z,18.60
2023-02-03T02:48:19.094Z,16.40
2023-02-03T02:49:19.105Z,18.60
2023-02-03T02:50:19.079Z,17.20
2023-02-03T02:51:19.058Z,17.70
2023-02-03T02:52:19.069Z,17.70
2023-02-03T02:53:19.039Z,14.00
2023-02-03T02:54:19.032Z,17.50
2023-02-03T02:55:19.026Z,17.40
2023-02-03T02:56:19.009Z,19.70
2023-02-03T02:57:19.000Z,16.50
2023-02-03T02:58:18.990Z,17.00
2023-02-03T02:59:18.980Z,19.30
2023-02-03T03:00:18.965Z,15.70
2023-02-03T03:01:19.004Z,17.70
2023-02-03T03:02:18.999Z,17.40
2023-02-03T03:03:18.941Z,19.40
2023-02-03T03:04:18.944Z,17.40
2023-02-03T03:05:18.918Z,17.80
2023-02-03T03:06:18.899Z,16.70
2023-02-03T03:07:18.907Z,17.60
2023-02-03T03:08:18.878Z,19.40
2023-02-03T03:09:18.887Z,15.60
2023-02-03T03:10:18.854Z,17.70
2023-02-03T03:11:18.843Z,14.30
2023-02-03T03:12:18.848Z,17.50
2023-02-03T03:13:18.836Z,14.70
2023-02-03T03:14:18.807Z,18.10
2023-02-03T03:15:18.800Z,16.40
2023-02-03T03:16:18.824Z,18.80
2023-02-03T03:17:18.791Z,15.30
2023-02-03T03:18:18.763Z,15.40
2023-02-03T03:19:18.764Z,16.20
2023-02-03T03:20:18.743Z,18.30
2023-02-03T03:21:18.734Z,15.30
2023-02-03T03:22:18.730Z,16.50
2023-02-03T03:23:18.715Z,16.30
2023-02-03T03:24:18.748Z,19.70
2023-02-03T03:25:18.695Z,16.80
2023-02-03T03:26:18.684Z,16.90
2023-02-03T03:27:18.683Z,17.70
2023-02-03T03:28:18.702Z,16.10
2023-02-03T03:29:18.661Z,16.40
2023-02-03T03:30:18.648Z,15.30
2023-02-03T03:31:18.919Z,16.10
2023-02-03T03:32:18.668Z,15.10
2023-02-03T03:33:18.609Z,16.10
2023-02-03T03:34:18.597Z,14.20
2023-02-03T03:35:18.585Z,13.70
2023-02-03T03:36:18.571Z,15.80
2023-02-03T03:37:18.662Z,16.50
2023-02-03T03:38:18.544Z,16.10
2023-02-03T03:39:18.554Z,15.60
2023-02-03T03:40:18.523Z,15.50
2023-02-03T03:41:18.517Z,13.40
2023-02-03T03:42:18.512Z,14.00
2023-02-03T03:43:18.526Z,15.50
2023-02-03T03:44:18.479Z,13.50
2023-02-03T03:45:18.471Z,16.40
2023-02-03T03:46:18.479Z,13.60
2023-02-03T03:47:18.467Z,16.80
2023-02-03T03:48:18.445Z,16.80
2023-02-03T03:49:18.428Z,16.80
2023-02-03T03:50:18.424Z,11.10
2023-02-03T03:51:18.420Z,15.70
2023-02-03T03:52:18.407Z,15.30
2023-02-03T03:53:18.403Z,16.10
2023-02-03T03:54:18.366Z,17.80
2023-02-03T03:55:18.361Z,14.40
2023-02-03T03:56:18.350Z,12.80
2023-02-03T03:57:18.341Z,12.90
2023-02-03T03:58:18.335Z,15.00
2023-02-03T03:59:18.319Z,16.90
2023-02-03T04:00:18.301Z,15.50
2023-02-03T04:01:18.333Z,14.70
2023-02-03T04:02:18.310Z,14.20
2023-02-03T04:03:18.312Z,12.90
2023-02-03T04:04:18.260Z,14.00
2023-02-03T04:05:18.254Z,14.80
2023-02-03T04:06:18.240Z,15.70
2023-02-03T04:07:18.233Z,14.50
2023-02-03T04:08:18.232Z,12.50
2023-02-03T04:09:18.211Z,12.30
2023-02-03T04:10:18.212Z,13.70
2023-02-03T04:11:18.187Z,12.50
2023-02-03T04:12:18.174Z,12.30
2023-02-03T04:13:18.174Z,13.90
2023-02-03T04:14:18.150Z,13.30
2023-02-03T04:15:18.147Z,10.90
2023-02-03T04:16:18.197Z,13.90
2023-02-03T04:17:18.123Z,15.90
2023-02-03T04:18:18.132Z,11.30
2023-02-03T04:19:18.111Z,12.90
2023-02-03T04:20:18.088Z,14.60
2023-02-03T04:21:18.078Z,15.80
2023-02-03T04:22:18.101Z,12.30
2023-02-03T04:23:18.073Z,10.90
2023-02-03T04:24:18.049Z,13.50
2023-02-03T04:25:18.035Z,18.20
2023-02-03T04:26:18.018Z,13.60
2023-02-03T04:27:18.014Z,11.70
2023-02-03T04:28:18.107Z,12.80
2023-02-03T04:29:17.995Z,11.60
2023-02-03T04:30:17.975Z,13.30
2023-02-03T04:31:18.165Z,11.50
2023-02-03T04:32:17.963Z,13.60
2023-02-03T04:33:17.954Z,12.30
2023-02-03T04:34:17.930Z,16.80
2023-02-03T04:35:17.930Z,11.20
2023-02-03T04:36:17.910Z,10.70
2023-02-03T04:37:17.902Z,13.10
2023-02-03T04:38:17.907Z,9.90
2023-02-03T04:39:17.893Z,10.10
2023-02-03T04:40:17.901Z,12.80
2023-02-03T04:41:17.857Z,13.40
2023-02-03T04:42:17.848Z,10.40
2023-02-03T04:43:17.852Z,11.80
2023-02-03T04:44:17.819Z,10.00
2023-02-03T04:45:17.814Z,10.20
2023-02-03T04:46:17.803Z,14.00
2023-02-03T04:47:17.793Z,14.00
2023-02-03T04:48:17.803Z,12.90
2023-02-03T04:49:17.778Z,11.00
2023-02-03T04:50:17.753Z,11.40
2023-02-03T04:51:17.753Z,12.90
2023-02-03T04:52:17.743Z,8.90
2023-02-03T04:53:17.742Z,10.40
2023-02-03T04:54:17.717Z,9.30
2023-02-03T04:55:17.705Z,10.30
2023-02-03T04:56:17.708Z,12.40
2023-02-03T04:57:17.681Z,13.80
2023-02-03T04:58:17.705Z,11.20
2023-02-03T04:59:17.664Z,13.10
2023-02-03T05:00:17.649Z,10.30
2023-02-03T05:01:17.761Z,12.00
2023-02-03T05:02:17.857Z,9.80
2023-02-03T05:03:17.695Z,10.40
2023-02-03T05:04:17.615Z,9.00
2023-02-03T05:05:17.605Z,9.70
2023-02-03T05:06:17.585Z,9.90
2023-02-03T05:07:17.576Z,11.10
2023-02-03T05:08:17.561Z,10.90
2023-02-03T05:09:17.566Z,12.00
2023-02-03T05:10:17.540Z,12.10
2023-02-03T05:11:17.529Z,9.60
2023-02-03T05:12:17.514Z,8.50
2023-02-03T05:13:17.527Z,11.70
2023-02-03T05:14:17.515Z,12.20
2023-02-03T05:15:17.493Z,10.90
2023-02-03T05:16:17.588Z,8.40
2023-02-03T05:17:17.470Z,10.00
2023-02-03T05:18:17.455Z,8.00
2023-02-03T05:19:17.453Z,12.10
2023-02-03T05:20:17.429Z,10.00
2023-02-03T05:21:17.431Z,12.00
2023-02-03T05:22:17.413Z,9.70
2023-02-03T05:23:17.413Z,12.60
2023-02-03T05:24:17.466Z,7.60
2023-02-03T05:25:17.477Z,9.60
2023-02-03T05:26:17.364Z,10.10
2023-02-03T05:27:21.357Z,8.80
2023-02-03T05:28:17.434Z,9.20
2023-02-03T05:29:17.344Z,9.30
2023-02-03T05:30:17.318Z,10.00
2023-02-03T05:31:17.454Z,8.80
2023-02-03T05:32:17.306Z,11.30
2023-02-03T05:33:17.294Z,9.10
2023-02-03T05:34:17.292Z,10.30
2023-02-03T05:35:17.273Z,8.90
2023-02-03T05:36:17.252Z,7.40
2023-02-03T05:37:17.250Z,10.90
2023-02-03T05:38:17.232Z,6.90
2023-02-03T05:39:17.234Z,9.90
2023-02-03T05:40:17.207Z,10.30
2023-02-03T05:41:17.200Z,10.00
2023-02-03T05:42:17.188Z,10.00
2023-02-03T05:43:17.186Z,6.30
2023-02-03T05:44:17.180Z,8.60
2023-02-03T05:45:17.169Z,5.70
2023-02-03T05:46:17.172Z,7.50
2023-02-03T05:47:17.140Z,8.70
2023-02-03T05:48:17.128Z,8.80
2023-02-03T05:49:17.140Z,7.90
2023-02-03T05:50:17.101Z,9.60
2023-02-03T05:51:17.099Z,10.80
2023-02-03T05:52:17.077Z,7.00
2023-02-03T05:53:17.070Z,11.50
2023-02-03T05:54:17.064Z,9.10
2023-02-03T05:55:17.048Z,6.60
2023-02-03T05:56:17.041Z,11.40
2023-02-03T05:57:17.029Z,8.90
2023-02-03T05:58:17.015Z,6.70
2023-02-03T05:59:17.038Z,10.10
2023-02-03T06:00:16.988Z,6.80
2023-02-03T06:01:16.985Z,8.20
2023-02-03T06:02:16.969Z,8.00
2023-02-03T06:03:17.047Z,8.80
2023-02-03T06:04:16.960Z,8.50
2023-02-03T06:05:16.950Z,7.60
2023-02-03T06:06:16.927Z,10.80
2023-02-03T06:07:16.911Z,7.50
2023-02-03T06:08:16.909Z,7.90
2023-02-03T06:09:16.898Z,8.30
2023-02-03T06:10:16.892Z,11.20
2023-02-03T06:11:16.866Z,7.10
2023-02-03T06:12:16.863Z,9.40
2023-02-03T06:13:16.857Z,7.80
2023-02-03T06:14:16.850Z,8.40
2023-02-03T06:15:16.834Z,8.60
2023-02-03T06:16:16.843Z,8.80
2023-02-03T06:17:16.804Z,7.80
2023-02-03T06:18:16.796Z,9.00
2023-02-03T06:19:16.787Z,11.60
2023-02-03T06:20:16.810Z,7.10
2023-02-03T06:21:16.773Z,7.50
2023-02-03T06:22:16.753Z,7.60
2023-02-03T06:23:16.740Z,7.30
2023-02-03T06:24:16.732Z,5.10
2023-02-03T06:25:16.732Z,8.10
2023-02-03T06:26:16.715Z,8.10
2023-02-03T06:27:16.691Z,6.50
2023-02-03T06:28:16.770Z,9.00
2023-02-03T06:29:16.672Z,7.70
2023-02-03T06:30:16.674Z,8.60
2023-02-03T06:31:16.839Z,9.90
2023-02-03T06:32:16.640Z,7.90
2023-02-03T06:33:16.663Z,7.60
2023-02-03T06:34:16.618Z,12.50
2023-02-03T06:35:16.621Z,6.90
2023-02-03T06:36:16.600Z,11.40
2023-02-03T06:37:16.608Z,8.70
2023-02-03T06:38:16.577Z,8.60
2023-02-03T06:39:16.568Z,7.70
2023-02-03T06:40:16.562Z,9.80
2023-02-03T06:41:16.541Z,5.90
2023-02-03T06:42:16.537Z,8.70
2023-02-03T06:43:16.528Z,7.60
2023-02-03T06:44:16.515Z,8.90
2023-02-03T06:45:16.537Z,6.70
2023-02-03T06:46:16.552Z,6.30
2023-02-03T06:47:16.473Z,6.20
2023-02-03T06:48:16.479Z,9.50
2023-02-03T06:49:16.483Z,9.00
2023-02-03T06:50:16.452Z,6.70
2023-02-03T06:51:16.713Z,9.20
2023-02-03T06:52:16.419Z,7.50
2023-02-03T06:53:16.415Z,7.40
2023-02-03T06:54:16.406Z,8.00
2023-02-03T06:55:16.408Z,9.70
2023-02-03T06:56:16.421Z,7.80
2023-02-03T06:57:16.366Z,8.40
2023-02-03T06:58:16.381Z,8.70
2023-02-03T06:59:16.346Z,9.60
2023-02-03T07:00:25.997Z,7.60
2023-02-03T07:01:16.412Z,7.40
2023-02-03T07:02:16.338Z,7.60
2023-02-03T07:03:16.303Z,5.80
2023-02-03T07:04:16.294Z,6.90
2023-02-03T07:05:16.288Z,9.10
2023-02-03T07:06:16.275Z,9.50
2023-02-03T07:07:16.256Z,7.90
2023-02-03T07:08:16.273Z,8.20
2023-02-03T07:09:16.236Z,7.40
2023-02-03T07:10:16.221Z,6.60
2023-02-03T07:11:16.226Z,9.40
2023-02-03T07:12:16.201Z,7.40
2023-02-03T07:13:16.191Z,9.50
2023-02-03T07:14:16.180Z,6.40
2023-02-03T07:15:16.167Z,9.60
2023-02-03T07:16:16.225Z,10.20
2023-02-03T07:17:16.150Z,8.20
2023-02-03T07:18:30.794Z,6.90
2023-02-03T07:19:16.148Z,9.90
2023-02-03T07:20:16.119Z,9.90
2023-02-03T07:21:16.148Z,10.60
2023-02-03T07:22:16.109Z,9.70
2023-02-03T07:23:16.084Z,9.70
2023-02-03T07:24:16.069Z,8.70
2023-02-03T07:25:16.070Z,9.50
2023-02-03T07:26:16.055Z,10.90
2023-02-03T07:27:16.062Z,9.00
2023-02-03T07:28:16.071Z,11.40
2023-02-03T07:29:16.021Z,11.20
2023-02-03T07:30:16.002Z,8.90
2023-02-03T07:31:16.149Z,11.60
2023-02-03T07:32:15.978Z,12.00
2023-02-03T07:33:15.976Z,8.30
2023-02-03T07:34:15.985Z,11.70
2023-02-03T07:35:15.955Z,11.40
2023-02-03T07:36:16.010Z,11.90
2023-02-03T07:37:15.934Z,9.80
2023-02-03T07:38:15.913Z,8.80
2023-02-03T07:39:15.909Z,11.90
2023-02-03T07:40:15.907Z,7.90
2023-02-03T07:41:17.997Z,10.90
2023-02-03T07:42:15.868Z,9.20
2023-02-03T07:43:15.864Z,9.40
2023-02-03T07:44:15.847Z,9.10
2023-02-03T07:45:15.845Z,12.30
2023-02-03T07:46:15.887Z,11.80
2023-02-03T07:47:15.819Z,8.00
2023-02-03T07:48:15.803Z,11.30
2023-02-03T07:49:15.813Z,10.20
2023-02-03T07:50:15.783Z,9.60
2023-02-03T07:51:15.785Z,11.70
2023-02-03T07:52:15.759Z,10.10
2023-02-03T07:53:15.790Z,12.80
2023-02-03T07:54:15.741Z,13.40
2023-02-03T07:55:15.739Z,7.90
2023-02-03T07:56:15.725Z,10.70
2023-02-03T07:57:15.706Z,9.30
2023-02-03T07:58:15.693Z,9.20
2023-02-03T07:59:15.686Z,13.60
2023-02-03T08:00:15.709Z,14.40
2023-02-03T08:01:15.691Z,13.50
2023-02-03T08:02:15.653Z,10.70
2023-02-03T08:03:15.643Z,11.40
2023-02-03T08:04:15.632Z,13.20
2023-02-03T08:05:15.745Z,12.40
2023-02-03T08:06:15.618Z,11.90
2023-02-03T08:07:15.604Z,12.20
2023-02-03T08:08:15.587Z,14.10
2023-02-03T08:09:15.576Z,11.10
2023-02-03T08:10:15.562Z,11.60
2023-02-03T08:11:15.566Z,13.50
2023-02-03T08:12:15.549Z,14.60
2023-02-03T08:13:15.565Z,12.10
2023-02-03T08:14:15.516Z,12.80
2023-02-03T08:15:15.517Z,10.90
2023-02-03T08:16:15.565Z,12.80
2023-02-03T08:17:15.495Z,13.20
2023-02-03T08:18:15.482Z,12.20
2023-02-03T08:19:15.468Z,9.70
2023-02-03T08:20:15.454Z,10.50
2023-02-03T08:21:15.456Z,11.20
2023-02-03T08:22:15.433Z,11.90
2023-02-03T08:23:15.425Z,11.30
2023-02-03T08:24:15.407Z,10.20
2023-02-03T08:25:15.407Z,13.10
2023-02-03T08:26:15.389Z,12.70
2023-02-03T08:27:15.390Z,12.00
2023-02-03T08:28:15.462Z,16.30
2023-02-03T08:29:15.358Z,12.10
2023-02-03T08:30:15.355Z,14.00
2023-02-03T08:31:15.477Z,9.70
2023-02-03T08:32:15.429Z,9.70
2023-02-03T08:33:15.313Z,12.00
2023-02-03T08:34:15.297Z,9.60
2023-02-03T08:35:15.296Z,14.60
2023-02-03T08:36:15.280Z,11.70
2023-02-03T08:37:15.284Z,10.60
2023-02-03T08:38:15.258Z,12.00
2023-02-03T08:39:15.245Z,11.10
2023-02-03T08:40:15.252Z,12.20
2023-02-03T08:41:15.227Z,12.70
2023-02-03T08:42:15.223Z,13.10
2023-02-03T08:43:15.215Z,9.00
2023-02-03T08:44:15.192Z,11.70
2023-02-03T08:45:15.190Z,10.90
2023-02-03T08:46:15.174Z,10.90
2023-02-03T08:47:15.217Z,9.90
2023-02-03T08:48:15.155Z,12.40
2023-02-03T08:49:15.144Z,10.80
2023-02-03T08:50:15.139Z,10.00
2023-02-03T08:51:15.120Z,13.00
2023-02-03T08:52:17.333Z,13.40
2023-02-03T08:53:15.109Z,12.30
2023-02-03T08:54:15.079Z,9.70
2023-02-03T08:55:15.074Z,13.30
2023-02-03T08:56:15.064Z,10.70
2023-02-03T08:57:15.062Z,9.60
2023-02-03T08:58:15.035Z,11.00
2023-02-03T08:59:15.030Z,13.10
2023-02-03T09:00:15.011Z,10.80
2023-02-03T09:01:15.078Z,13.70
2023-02-03T09:02:15.012Z,11.10
2023-02-03T09:03:14.981Z,12.90
2023-02-03T09:04:15.004Z,13.10
2023-02-03T09:05:15.006Z,9.50
2023-02-03T09:06:14.956Z,9.50
2023-02-03T09:07:14.946Z,9.60
2023-02-03T09:08:14.936Z,13.80
2023-02-03T09:09:14.914Z,13.20
2023-02-03T09:10:14.904Z,9.80
2023-02-03T09:11:14.898Z,12.60
2023-02-03T09:12:14.893Z,12.20
2023-02-03T09:13:14.871Z,13.00
2023-02-03T09:14:14.873Z,11.80
2023-02-03T09:15:14.845Z,9.60
2023-02-03T09:16:14.870Z,11.90
2023-02-03T09:17:14.849Z,13.10
2023-02-03T09:18:14.829Z,12.50
2023-02-03T09:19:14.802Z,11.70
2023-02-03T09:20:14.818Z,10.70
2023-02-03T09:21:27.386Z,10.10
2023-02-03T09:22:14.792Z,11.30
2023-02-03T09:23:14.772Z,11.80
2023-02-03T09:24:14.756Z,13.00
2023-02-03T09:25:14.745Z,12.10
2023-02-03T09:26:14.731Z,9.60
2023-02-03T09:27:14.725Z,11.40
2023-02-03T09:28:14.727Z,12.90
2023-02-03T09:29:14.699Z,9.70
2023-02-03T09:30:14.694Z,12.70
2023-02-03T09:31:14.811Z,15.20
2023-02-03T09:32:15.757Z,10.40
2023-02-03T09:33:14.649Z,10.70
2023-02-03T09:34:14.642Z,10.80
2023-02-03T09:35:14.650Z,9.90
2023-02-03T09:36:14.621Z,10.90
2023-02-03T09:37:14.618Z,11.40
2023-02-03T09:38:14.598Z,11.20
2023-02-03T09:39:14.582Z,9.00
2023-02-03T09:40:14.575Z,12.50
2023-02-03T09:41:14.566Z,10.10
2023-02-03T09:42:14.566Z,13.30
2023-02-03T09:43:14.561Z,12.50
2023-02-03T09:44:14.532Z,14.60
2023-02-03T09:45:14.510Z,12.70
2023-02-03T09:46:14.577Z,12.60
2023-02-03T09:47:14.529Z,10.80
2023-02-03T09:48:14.491Z,9.50
2023-02-03T09:49:14.469Z,9.60
2023-02-03T09:50:14.463Z,11.40
2023-02-03T09:51:14.454Z,10.80
2023-02-03T09:52:14.473Z,11.70
2023-02-03T09:53:14.444Z,11.60
2023-02-03T09:54:14.419Z,9.40
2023-02-03T09:55:14.406Z,12.70
2023-02-03T09:56:14.403Z,13.90
2023-02-03T09:57:14.387Z,9.00
2023-02-03T09:58:14.401Z,12.60
2023-02-03T09:59:14.360Z,9.10
2023-02-03T10:00:14.352Z,9.40
2023-02-03T10:01:14.366Z,10.10
2023-02-03T10:02:14.391Z,10.10
2023-02-03T10:03:14.343Z,12.60
2023-02-03T10:04:14.308Z,12.40
2023-02-03T10:05:14.317Z,14.70
2023-02-03T10:06:14.295Z,10.40
2023-02-03T10:07:14.269Z,13.50
2023-02-03T10:08:14.277Z,8.90
2023-02-03T10:09:14.255Z,8.70
2023-02-03T10:10:14.251Z,11.30
2023-02-03T10:11:14.231Z,10.70
2023-02-03T10:12:14.221Z,8.40
2023-02-03T10:13:14.248Z,10.50
2023-02-03T10:14:14.199Z,11.70
2023-02-03T10:15:14.190Z,9.30
2023-02-03T10:16:14.179Z,10.40
2023-02-03T10:17:14.159Z,8.90
2023-02-03T10:18:14.166Z,10.20
2023-02-03T10:19:14.144Z,11.40
2023-02-03T10:20:14.135Z,14.20
2023-02-03T10:21:14.138Z,6.90
2023-02-03T10:22:14.113Z,9.60
2023-02-03T10:23:14.119Z,8.40
2023-02-03T10:24:14.110Z,10.70
2023-02-03T10:25:14.074Z,14.20
2023-02-03T10:26:14.065Z,9.30
2023-02-03T10:27:14.049Z,9.80
2023-02-03T10:28:14.105Z,11.70
2023-02-03T10:29:14.032Z,12.20
2023-02-03T10:30:14.020Z,9.50
2023-02-03T10:31:14.097Z,11.80
2023-02-03T10:32:14.077Z,10.80
2023-02-03T10:33:13.999Z,7.30
2023-02-03T10:34:13.989Z,9.80
2023-02-03T10:35:13.973Z,9.10
2023-02-03T10:36:13.970Z,11.20
2023-02-03T10:37:13.950Z,8.50
2023-02-03T10:38:13.953Z,13.20
2023-02-03T10:39:13.931Z,7.40
2023-02-03T10:40:13.929Z,9.40
2023-02-03T10:41:13.991Z,9.10
2023-02-03T10:42:13.895Z,9.70
2023-02-03T10:43:13.891Z,9.30
2023-02-03T10:44:13.880Z,10.30
2023-02-03T10:45:13.863Z,9.20
2023-02-03T10:46:13.877Z,11.70
2023-02-03T10:47:13.840Z,9.00
2023-02-03T10:48:13.853Z,7.20
2023-02-03T10:49:15.579Z,8.30
2023-02-03T10:50:13.802Z,11.20
2023-02-03T10:51:13.802Z,9.30
2023-02-03T10:52:13.776Z,10.00
2023-02-03T10:53:13.807Z,8.40
2023-02-03T10:54:13.769Z,9.50
2023-02-03T10:55:13.785Z,7.90
2023-02-03T10:56:13.747Z,10.80
2023-02-03T10:57:13.735Z,9.50
2023-02-03T10:58:13.723Z,7.90
2023-02-03T10:59:13.720Z,10.60
2023-02-03T11:00:13.703Z,12.30
2023-02-03T11:01:13.721Z,12.20
2023-02-03T11:02:13.715Z,6.50
2023-02-03T11:03:13.673Z,15.50
2023-02-03T11:04:13.665Z,14.60
2023-02-03T11:05:13.643Z,10.00
2023-02-03T11:06:13.633Z,10.80
2023-02-03T11:07:13.621Z,10.60
2023-02-03T11:08:13.604Z,10.80
2023-02-03T11:09:13.610Z,8.70
2023-02-03T11:10:13.584Z,11.40
2023-02-03T11:11:13.570Z,8.90
2023-02-03T11:12:13.571Z,12.40
2023-02-03T11:13:13.559Z,8.70
2023-02-03T11:14:13.552Z,7.80
2023-02-03T11:15:13.537Z,7.30
2023-02-03T11:16:13.643Z,9.20
2023-02-03T11:17:13.515Z,8.90
2023-02-03T11:18:14.072Z,7.40
2023-02-03T11:19:13.500Z,10.10
2023-02-03T11:20:13.471Z,10.30
2023-02-03T11:21:13.467Z,8.80
2023-02-03T11:22:13.446Z,7.30
2023-02-03T11:23:13.475Z,8.50
2023-02-03T11:24:13.440Z,8.20
2023-02-03T11:25:13.423Z,7.70
2023-02-03T11:26:13.421Z,8.20
2023-02-03T11:27:13.400Z,8.20
2023-02-03T11:28:13.490Z,8.00
2023-02-03T11:29:13.385Z,8.70
2023-02-03T11:30:13.351Z,9.10
2023-02-03T11:31:13.440Z,12.90
2023-02-03T11:32:13.405Z,9.60
2023-02-03T11:33:13.333Z,9.80
2023-02-03T11:34:13.333Z,9.60
2023-02-03T11:35:13.320Z,9.10
2023-02-03T11:36:13.297Z,9.20
2023-02-03T11:37:13.299Z,9.70
2023-02-03T11:38:13.274Z,10.50
2023-02-03T11:39:13.278Z,7.60
2023-02-03T11:40:13.251Z,7.20
2023-02-03T11:41:13.242Z,8.80
2023-02-03T11:42:13.232Z,7.00
2023-02-03T11:43:13.227Z,5.10
2023-02-03T11:44:13.231Z,7.30
2023-02-03T11:45:13.214Z,9.10
2023-02-03T11:46:13.214Z,5.60
2023-02-03T11:47:13.176Z,8.40
2023-02-03T11:48:13.177Z,9.20
2023-02-03T11:49:13.171Z,9.70
2023-02-03T11:50:13.150Z,7.20
2023-02-03T11:51:13.134Z,8.00
2023-02-03T11:52:13.130Z,8.60
2023-02-03T11:53:13.107Z,7.60
2023-02-03T11:54:13.109Z,9.40
2023-02-03T11:55:13.091Z,9.00
2023-02-03T11:56:13.087Z,10.70
2023-02-03T11:57:13.062Z,10.30
2023-02-03T11:58:13.043Z,11.20
2023-02-03T11:59:13.071Z,8.20
2023-02-03T12:00:13.038Z,7.70
2023-02-03T12:01:13.022Z,9.30
2023-02-03T12:02:12.999Z,7.90
2023-02-03T12:03:13.035Z,9.00
2023-02-03T12:04:13.028Z,9.70
2023-02-03T12:05:12.969Z,8.20
2023-02-03T12:06:12.955Z,10.30
2023-02-03T12:07:12.940Z,10.10
2023-02-03T12:08:12.936Z,8.60
2023-02-03T12:09:13.020Z,8.90
2023-02-03T12:10:12.915Z,10.90
2023-02-03T12:11:12.896Z,7.30
2023-02-03T12:12:12.891Z,8.80
2023-02-03T12:13:12.878Z,9.60
2023-02-03T12:14:12.869Z,10.20
2023-02-03T12:15:12.866Z,9.90
2023-02-03T12:16:12.920Z,9.90
2023-02-03T12:17:12.847Z,9.10
2023-02-03T12:18:12.831Z,6.60
2023-02-03T12:19:12.810Z,8.20
2023-02-03T12:20:12.824Z,9.60
2023-02-03T12:21:12.789Z,10.30
2023-02-03T12:22:12.783Z,10.40
2023-02-03T12:23:12.767Z,12.80
2023-02-03T12:24:12.761Z,11.30
2023-02-03T12:25:12.756Z,8.90
2023-02-03T12:26:12.735Z,14.30
2023-02-03T12:27:12.721Z,11.40
2023-02-03T12:28:20.680Z,10.70
2023-02-03T12:29:12.713Z,13.50
2023-02-03T12:30:12.704Z,14.30
2023-02-03T12:31:12.901Z,12.20
2023-02-03T12:32:12.740Z,13.80
2023-02-03T12:33:12.651Z,19.20
2023-02-03T12:34:12.649Z,9.10
2023-02-03T12:35:12.640Z,13.00
2023-02-03T12:36:12.627Z,12.30
2023-02-03T12:37:12.610Z,13.70
2023-02-03T12:38:12.607Z,15.50
2023-02-03T12:39:12.594Z,12.90
2023-02-03T12:40:12.595Z,11.60
2023-02-03T12:41:12.565Z,13.50
2023-02-03T12:42:12.556Z,13.50
2023-02-03T12:43:12.545Z,10.90
2023-02-03T12:44:12.536Z,12.10
2023-02-03T12:45:12.533Z,11.40
2023-02-03T12:46:12.593Z,11.00
2023-02-03T12:47:12.497Z,12.90
2023-02-03T12:48:12.490Z,13.00
2023-02-03T12:49:12.479Z,16.70
2023-02-03T12:50:12.482Z,13.30
2023-02-03T12:51:12.493Z,9.20
2023-02-03T12:52:12.448Z,14.30
2023-02-03T12:53:12.431Z,17.80
2023-02-03T12:54:12.425Z,10.50
2023-02-03T12:55:12.421Z,12.30
2023-02-03T12:56:12.413Z,15.30
2023-02-03T12:57:12.392Z,12.90
2023-02-03T12:58:12.384Z,13.40
2023-02-03T12:59:12.403Z,13.30
2023-02-03T13:00:12.376Z,9.80